createdAt,value
2022-12-15T00:00:01.280Z,36.50
2022-12-15T00:01:01.607Z,36.00
2022-12-15T00:02:01.908Z,38.30
2022-12-15T00:03:02.171Z,39.60
2022-12-15T00:04:02.526Z,37.70
2022-12-15T00:05:02.744Z,39.00
2022-12-15T00:06:03.066Z,37.00
2022-12-15T00:07:03.370Z,37.80
2022-12-15T00:08:03.676Z,38.60
2022-12-15T00:09:04.015Z,40.10
2022-12-15T00:10:04.724Z,41.00
2022-12-15T00:11:04.553Z,40.20
2022-12-15T00:12:04.924Z,40.20
2022-12-15T00:13:05.300Z,38.60
2022-12-15T00:14:05.580Z,42.20
2022-12-15T00:15:05.786Z,38.20
2022-12-15T00:16:06.018Z,38.50
2022-12-15T00:17:06.278Z,41.40
2022-12-15T00:18:06.598Z,40.40
2022-12-15T00:19:07.085Z,41.70
2022-12-15T00:20:07.275Z,40.40
2022-12-15T00:21:07.551Z,38.10
2022-12-15T00:22:07.749Z,38.80
2022-12-15T00:23:08.051Z,39.60
2022-12-15T00:24:09.334Z,38.20
2022-12-15T00:25:08.655Z,38.60
2022-12-15T00:26:08.978Z,41.10
2022-12-15T00:27:10.141Z,41.20
2022-12-15T00:28:10.402Z,40.10
2022-12-15T00:29:09.902Z,40.60
2022-12-15T00:30:10.167Z,42.70
2022-12-15T00:31:10.458Z,41.00
2022-12-15T00:32:10.713Z,39.60
2022-12-15T00:33:11.037Z,40.20
2022-12-15T00:34:11.378Z,40.00
2022-12-15T00:35:11.627Z,40.40
2022-12-15T00:36:11.987Z,41.30
2022-12-15T00:37:12.183Z,39.50
2022-12-15T00:38:12.528Z,40.20
2022-12-15T00:39:12.724Z,40.70
2022-12-15T00:40:13.081Z,38.50
2022-12-15T00:41:13.446Z,38.20
2022-12-15T00:42:13.754Z,39.50
2022-12-15T00:43:14.052Z,41.30
2022-12-15T00:44:18.923Z,43.70
2022-12-15T00:45:15.675Z,41.50
2022-12-15T00:46:15.141Z,40.30
2022-12-15T00:47:15.356Z,42.60
2022-12-15T00:48:15.697Z,41.30
2022-12-15T00:49:16.062Z,39.10
2022-12-15T00:50:16.281Z,44.40
2022-12-15T00:51:16.488Z,40.50
2022-12-15T00:52:16.746Z,42.10
2022-12-15T00:53:16.999Z,41.50
2022-12-15T00:54:18.266Z,42.20
2022-12-15T00:55:17.584Z,42.80
2022-12-15T00:56:17.935Z,40.00
2022-12-15T00:57:18.169Z,42.00
2022-12-15T00:58:18.521Z,39.00
2022-12-15T00:59:18.740Z,38.00
2022-12-15T01:00:19.077Z,38.90
2022-12-15T01:01:19.458Z,42.00
2022-12-15T01:02:19.889Z,40.40
2022-12-15T01:03:20.017Z,39.50
2022-12-15T01:04:20.225Z,39.90
2022-12-15T01:05:20.478Z,43.10
2022-12-15T01:07:54.449Z,40.90
2022-12-15T01:08:36.441Z,40.70
2022-12-15T01:09:36.680Z,41.90
2022-12-15T01:10:37.050Z,40.30
2022-12-15T01:11:37.158Z,38.80
2022-12-15T01:12:37.499Z,41.10
2022-12-15T01:13:37.826Z,39.00
2022-12-15T01:14:38.082Z,38.90
2022-12-15T01:15:38.293Z,39.00
2022-12-15T01:16:38.769Z,38.00
2022-12-15T01:17:38.891Z,38.90
2022-12-15T01:18:39.187Z,41.00
2022-12-15T01:19:39.414Z,42.40
2022-12-15T01:20:39.735Z,38.10
2022-12-15T01:21:40.078Z,39.80
2022-12-15T01:22:40.308Z,40.40
2022-12-15T01:23:40.554Z,39.90
2022-12-15T01:24:40.895Z,39.80
2022-12-15T01:25:41.087Z,39.70
2022-12-15T01:26:41.472Z,36.70
2022-12-15T01:27:41.667Z,38.10
2022-12-15T01:28:41.947Z,35.80
2022-12-15T01:29:42.163Z,37.60
2022-12-15T01:30:42.559Z,37.20
2022-12-15T01:31:42.871Z,39.00
2022-12-15T01:32:46.184Z,39.00
2022-12-15T01:33:43.368Z,37.70
2022-12-15T01:34:43.751Z,39.50
2022-12-15T01:35:43.977Z,39.00
2022-12-15T01:36:44.306Z,38.20
2022-12-15T01:37:44.579Z,38.20
2022-12-15T01:38:49.282Z,38.10
2022-12-15T01:39:45.966Z,37.00
2022-12-15T01:40:45.325Z,39.20
2022-12-15T01:41:45.631Z,36.80
2022-12-15T01:42:45.881Z,39.30
2022-12-15T01:43:46.106Z,40.70
2022-12-15T01:44:46.448Z,39.50
2022-12-15T01:45:46.691Z,39.00
2022-12-15T01:46:47.012Z,38.60
2022-12-15T01:47:47.106Z,40.70
2022-12-15T01:48:47.419Z,40.90
2022-12-15T01:49:47.747Z,39.70
2022-12-15T01:50:48.153Z,40.00
2022-12-15T01:51:48.396Z,40.20
2022-12-15T01:52:49.649Z,40.80
2022-12-15T01:53:50.254Z,40.70
2022-12-15T01:54:49.268Z,41.00
2022-12-15T01:55:49.702Z,40.10
2022-12-15T01:56:49.992Z,42.10
2022-12-15T01:57:50.205Z,41.80
2022-12-15T01:58:50.543Z,40.30
2022-12-15T01:59:50.913Z,39.70
2022-12-15T02:00:51.263Z,41.00
2022-12-15T02:01:51.759Z,39.30
2022-12-15T02:02:51.947Z,41.40
2022-12-15T02:03:52.106Z,38.90
2022-12-15T02:04:52.389Z,39.80
2022-12-15T02:05:52.636Z,39.70
2022-12-15T02:06:52.843Z,41.60
2022-12-15T02:07:53.078Z,39.20
2022-12-15T02:08:53.433Z,39.60
2022-12-15T02:09:53.769Z,40.60
2022-12-15T02:10:54.058Z,42.00
2022-12-15T02:11:54.411Z,38.80
2022-12-15T02:12:54.720Z,40.20
2022-12-15T02:13:55.526Z,39.40
2022-12-15T02:14:55.291Z,39.40
2022-12-15T02:15:55.646Z,37.20
2022-12-15T02:16:55.910Z,39.50
2022-12-15T02:17:56.207Z,39.80
2022-12-15T02:18:56.566Z,38.60
2022-12-15T02:19:56.864Z,39.10
2022-12-15T02:20:57.293Z,36.70
2022-12-15T02:21:57.492Z,35.50
2022-12-15T02:22:58.011Z,37.60
2022-12-15T02:23:58.065Z,36.60
2022-12-15T02:24:58.393Z,39.10
2022-12-15T02:25:58.714Z,37.50
2022-12-15T02:26:59.216Z,41.50
2022-12-15T02:27:59.239Z,41.40
2022-12-15T02:28:59.565Z,40.90
2022-12-15T02:29:59.861Z,41.30
2022-12-15T02:31:00.036Z,40.00
2022-12-15T02:32:00.477Z,39.00
2022-12-15T02:33:00.749Z,37.90
2022-12-15T02:34:00.965Z,42.60
2022-12-15T02:35:01.209Z,37.20
2022-12-15T02:36:01.581Z,37.90
2022-12-15T02:37:01.861Z,37.50
2022-12-15T02:38:02.088Z,37.90
2022-12-15T02:39:02.398Z,38.80
2022-12-15T02:40:02.653Z,42.30
2022-12-15T02:41:02.945Z,37.60
2022-12-15T02:42:03.295Z,38.60
2022-12-15T02:43:03.580Z,38.60
2022-12-15T02:44:03.755Z,43.70
2022-12-15T02:45:04.150Z,41.60
2022-12-15T02:46:04.491Z,43.20
2022-12-15T02:47:04.648Z,41.20
2022-12-15T02:48:04.952Z,41.00
2022-12-15T02:49:05.335Z,40.80
2022-12-15T02:50:05.501Z,40.30
2022-12-15T02:51:05.865Z,41.50
2022-12-15T02:52:06.172Z,42.40
2022-12-15T02:53:06.542Z,39.40
2022-12-15T02:54:06.914Z,40.60
2022-12-15T02:55:07.179Z,39.50
2022-12-15T02:56:07.525Z,42.70
2022-12-15T02:57:07.842Z,41.80
2022-12-15T02:58:08.026Z,38.60
2022-12-15T02:59:08.410Z,39.40
2022-12-15T03:00:08.701Z,40.60
2022-12-15T03:01:09.184Z,39.80
2022-12-15T03:02:09.473Z,39.90
2022-12-15T03:03:09.809Z,39.10
2022-12-15T03:04:10.018Z,38.80
2022-12-15T03:05:10.338Z,40.90
2022-12-15T03:06:10.532Z,40.80
2022-12-15T03:07:10.885Z,39.80
2022-12-15T03:08:11.207Z,41.40
2022-12-15T03:09:11.544Z,42.00
2022-12-15T03:10:11.935Z,40.30
2022-12-15T03:11:12.189Z,41.70
2022-12-15T03:12:12.364Z,40.20
2022-12-15T03:13:12.748Z,41.70
2022-12-15T03:14:13.030Z,40.30
2022-12-15T03:15:13.499Z,40.90
2022-12-15T03:16:13.757Z,41.00
2022-12-15T03:17:13.926Z,40.30
2022-12-15T03:18:14.267Z,42.80
2022-12-15T03:19:14.655Z,40.80
2022-12-15T03:20:14.874Z,40.40
2022-12-15T03:21:15.217Z,39.90
2022-12-15T03:22:16.508Z,39.80
2022-12-15T03:23:15.846Z,42.50
2022-12-15T03:24:16.067Z,40.20
2022-12-15T03:25:16.410Z,40.70
2022-12-15T03:26:16.578Z,41.40
2022-12-15T03:27:16.943Z,42.10
2022-12-15T03:28:17.274Z,44.10
2022-12-15T03:29:17.610Z,40.70
2022-12-15T03:30:18.799Z,42.10
2022-12-15T03:31:18.164Z,43.40
2022-12-15T03:32:18.472Z,42.50
2022-12-15T03:33:18.708Z,42.60
2022-12-15T03:34:18.891Z,41.10
2022-12-15T03:35:19.251Z,41.80
2022-12-15T03:36:19.560Z,43.50
2022-12-15T03:37:19.893Z,44.50
2022-12-15T03:38:20.194Z,44.00
2022-12-15T03:39:20.665Z,42.10
2022-12-15T03:40:20.858Z,43.80
2022-12-15T03:41:21.264Z,43.80
2022-12-15T03:42:21.491Z,41.80
2022-12-15T03:43:21.837Z,40.50
2022-12-15T03:44:22.131Z,41.50
2022-12-15T03:45:22.373Z,42.30
2022-12-15T03:46:22.811Z,42.40
2022-12-15T03:47:23.061Z,42.20
2022-12-15T03:48:23.259Z,42.40
2022-12-15T03:49:23.584Z,40.00
2022-12-15T03:50:23.915Z,41.20
2022-12-15T03:51:24.223Z,42.50
2022-12-15T03:52:24.523Z,44.30
2022-12-15T03:53:24.851Z,41.40
2022-12-15T03:54:25.424Z,43.00
2022-12-15T03:55:25.521Z,41.10
2022-12-15T03:56:25.693Z,43.50
2022-12-15T03:57:26.069Z,41.50
2022-12-15T03:58:26.364Z,42.30
2022-12-15T03:59:26.716Z,43.10
2022-12-15T04:00:27.062Z,43.10
2022-12-15T04:01:27.520Z,42.90
2022-12-15T04:02:27.861Z,42.20
2022-12-15T04:03:28.170Z,43.10
2022-12-15T04:04:28.144Z,45.10
2022-12-15T04:05:28.414Z,43.10
2022-12-15T04:06:28.624Z,43.90
2022-12-15T04:07:28.951Z,40.70
2022-12-15T04:08:29.240Z,42.10
2022-12-15T04:09:29.742Z,42.80
2022-12-15T04:10:33.914Z,40.60
2022-12-15T04:11:30.183Z,44.20
2022-12-15T04:12:30.501Z,45.80
2022-12-15T04:13:31.056Z,40.60
2022-12-15T04:14:31.119Z,45.10
2022-12-15T04:15:31.415Z,42.60
2022-12-15T04:16:31.676Z,41.60
2022-12-15T04:17:31.871Z,44.20
2022-12-15T04:18:32.225Z,44.30
2022-12-15T04:19:32.537Z,42.80
2022-12-15T04:20:32.874Z,42.70
2022-12-15T04:21:33.235Z,41.70
2022-12-15T04:22:33.422Z,40.40
2022-12-15T04:23:33.943Z,43.30
2022-12-15T04:24:34.091Z,42.50
2022-12-15T04:25:34.494Z,39.30
2022-12-15T04:26:34.711Z,43.00
2022-12-15T04:27:35.027Z,40.80
2022-12-15T04:28:35.318Z,43.00
2022-12-15T04:29:35.530Z,39.50
2022-12-15T04:30:35.878Z,41.70
2022-12-15T04:31:36.191Z,42.60
2022-12-15T04:32:36.385Z,42.80
2022-12-15T04:33:37.266Z,41.40
2022-12-15T04:34:37.016Z,41.90
2022-12-15T04:35:37.403Z,41.40
2022-12-15T04:36:37.639Z,40.60
2022-12-15T04:37:37.943Z,40.30
2022-12-15T04:38:38.443Z,39.70
2022-12-15T04:39:38.994Z,41.30
2022-12-15T04:40:38.853Z,43.40
2022-12-15T04:41:39.184Z,42.00
2022-12-15T04:42:39.531Z,40.10
2022-12-15T04:43:39.755Z,40.90
2022-12-15T04:44:40.069Z,39.40
2022-12-15T04:45:40.397Z,43.10
2022-12-15T04:46:40.814Z,40.10
2022-12-15T04:47:41.066Z,42.30
2022-12-15T04:48:41.700Z,41.60
2022-12-15T04:49:41.745Z,41.70
2022-12-15T04:50:41.927Z,42.00
2022-12-15T04:51:42.348Z,42.40
2022-12-15T04:52:42.604Z,40.20
2022-12-15T04:53:42.917Z,42.50
2022-12-15T04:54:43.338Z,42.40
2022-12-15T04:55:43.582Z,40.60
2022-12-15T04:56:43.783Z,40.70
2022-12-15T04:57:44.176Z,43.40
2022-12-15T04:58:44.350Z,38.60
2022-12-15T04:59:44.746Z,41.90
2022-12-15T05:00:44.974Z,43.00
2022-12-15T05:01:45.441Z,41.50
2022-12-15T05:02:45.568Z,39.10
2022-12-15T05:03:45.803Z,41.80
2022-12-15T05:04:46.179Z,40.30
2022-12-15T05:05:46.464Z,38.70
2022-12-15T05:06:46.650Z,39.40
2022-12-15T05:07:46.995Z,42.50
2022-12-15T05:08:47.319Z,39.60
2022-12-15T05:09:47.717Z,39.80
2022-12-15T05:10:47.831Z,42.50
2022-12-15T05:11:48.224Z,38.90
2022-12-15T05:12:48.480Z,39.10
2022-12-15T05:13:48.725Z,40.30
2022-12-15T05:14:49.413Z,42.70
2022-12-15T05:15:49.339Z,39.20
2022-12-15T05:16:49.600Z,41.80
2022-12-15T05:17:49.790Z,39.20
2022-12-15T05:18:50.122Z,39.30
2022-12-15T05:19:50.499Z,41.20
2022-12-15T05:20:50.678Z,40.30
2022-12-15T05:21:51.132Z,44.60
2022-12-15T05:22:51.356Z,42.40
2022-12-15T05:23:51.679Z,40.80
2022-12-15T05:24:51.936Z,39.30
2022-12-15T05:25:52.247Z,41.80
2022-12-15T05:26:53.515Z,43.00
2022-12-15T05:27:52.845Z,41.20
2022-12-15T05:28:53.033Z,44.30
2022-12-15T05:29:53.251Z,42.60
2022-12-15T05:30:53.604Z,44.40
2022-12-15T05:31:53.848Z,42.40
2022-12-15T05:32:54.177Z,45.70
2022-12-15T05:33:57.181Z,44.60
2022-12-15T05:34:55.738Z,43.50
2022-12-15T05:35:54.937Z,45.20
2022-12-15T05:36:55.251Z,42.80
2022-12-15T05:37:55.527Z,44.80
2022-12-15T05:38:55.790Z,42.10
2022-12-15T05:39:56.179Z,44.90
2022-12-15T05:40:56.506Z,42.70
2022-12-15T05:41:56.837Z,43.60
2022-12-15T05:42:57.104Z,44.00
2022-12-15T05:43:57.485Z,47.30
2022-12-15T05:44:57.758Z,46.90
2022-12-15T05:45:58.166Z,47.20
2022-12-15T05:46:58.318Z,48.50
2022-12-15T05:47:58.634Z,47.00
2022-12-15T05:48:58.951Z,44.90
2022-12-15T05:49:59.171Z,43.20
2022-12-15T05:51:00.361Z,47.30
2022-12-15T05:51:59.789Z,44.60
2022-12-15T05:53:00.142Z,49.20
2022-12-15T05:54:00.433Z,44.50
2022-12-15T05:55:00.699Z,47.40
2022-12-15T05:56:00.987Z,48.40
2022-12-15T05:57:01.241Z,46.90
2022-12-15T05:58:01.598Z,44.50
2022-12-15T05:59:01.906Z,47.50
2022-12-15T06:00:02.208Z,45.60
2022-12-15T06:01:02.562Z,45.10
2022-12-15T06:02:02.894Z,46.50
2022-12-15T06:03:03.192Z,45.50
2022-12-15T06:04:03.416Z,46.50
2022-12-15T06:05:03.823Z,45.40
2022-12-15T06:06:04.002Z,43.70
2022-12-15T06:07:04.314Z,45.30
2022-12-15T06:08:04.660Z,44.80
2022-12-15T06:09:04.882Z,41.50
2022-12-15T06:10:05.226Z,44.50
2022-12-15T06:11:05.403Z,46.70
2022-12-15T06:12:05.718Z,44.40
2022-12-15T06:13:05.953Z,46.10
2022-12-15T06:14:06.210Z,47.70
2022-12-15T06:15:06.520Z,47.30
2022-12-15T06:16:06.956Z,46.20
2022-12-15T06:17:07.135Z,48.00
2022-12-15T06:18:07.526Z,47.60
2022-12-15T06:19:07.817Z,46.00
2022-12-15T06:20:08.183Z,43.10
2022-12-15T06:21:08.559Z,45.00
2022-12-15T06:22:08.696Z,43.90
2022-12-15T06:23:08.915Z,44.30
2022-12-15T06:24:09.192Z,47.50
2022-12-15T06:25:09.543Z,45.00
2022-12-15T06:26:09.816Z,47.80
2022-12-15T06:27:10.121Z,44.70
2022-12-15T06:28:10.341Z,45.80
2022-12-15T06:29:10.689Z,44.50
2022-12-15T06:30:11.026Z,49.20
2022-12-15T06:31:11.387Z,48.00
2022-12-15T06:32:11.595Z,45.30
2022-12-15T06:33:11.862Z,44.70
2022-12-15T06:34:12.214Z,43.90
2022-12-15T06:35:12.467Z,44.50
2022-12-15T06:36:12.673Z,42.80
2022-12-15T06:37:13.031Z,45.00
2022-12-15T06:38:13.299Z,45.40
2022-12-15T06:39:13.517Z,44.20
2022-12-15T06:40:13.941Z,46.30
2022-12-15T06:41:14.241Z,43.80
2022-12-15T06:42:14.537Z,47.90
2022-12-15T06:43:14.866Z,43.30
2022-12-15T06:44:15.122Z,48.00
2022-12-15T06:45:15.503Z,46.70
2022-12-15T06:46:15.761Z,46.30
2022-12-15T06:47:15.903Z,47.80
2022-12-15T06:48:16.184Z,44.30
2022-12-15T06:49:16.373Z,46.00
2022-12-15T06:50:16.731Z,46.50
2022-12-15T06:51:17.631Z,41.80
2022-12-15T06:52:17.261Z,41.50
2022-12-15T06:53:17.499Z,40.60
2022-12-15T06:54:17.800Z,43.80
2022-12-15T06:55:18.040Z,42.00
2022-12-15T06:56:18.349Z,42.70
2022-12-15T06:57:18.559Z,41.40
2022-12-15T06:58:18.834Z,43.30
2022-12-15T06:59:19.088Z,43.50
2022-12-15T07:00:19.362Z,42.40
2022-12-15T07:01:19.720Z,47.00
2022-12-15T07:02:25.147Z,42.10
2022-12-15T07:03:21.381Z,43.90
2022-12-15T07:04:20.659Z,44.80
2022-12-15T07:05:20.859Z,45.00
2022-12-15T07:06:21.076Z,40.80
2022-12-15T07:07:21.371Z,45.20
2022-12-15T07:08:25.605Z,46.30
2022-12-15T07:09:22.929Z,47.60
2022-12-15T07:10:22.201Z,43.20
2022-12-15T07:11:22.424Z,44.00
2022-12-15T07:12:22.747Z,43.90
2022-12-15T07:13:23.047Z,43.70
2022-12-15T07:14:23.265Z,41.80
2022-12-15T07:15:23.546Z,43.80
2022-12-15T07:16:23.825Z,42.00
2022-12-15T07:17:24.052Z,44.30
2022-12-15T07:18:24.470Z,44.80
2022-12-15T07:19:25.661Z,44.90
2022-12-15T07:20:28.807Z,42.40
2022-12-15T07:21:25.211Z,43.80
2022-12-15T07:22:25.484Z,43.60
2022-12-15T07:23:46.037Z,43.40
2022-12-15T07:24:27.040Z,42.60
2022-12-15T07:25:26.313Z,45.40
2022-12-15T07:26:26.606Z,43.90
2022-12-15T07:27:26.879Z,44.90
2022-12-15T07:28:27.154Z,44.80
2022-12-15T07:29:27.431Z,44.00
2022-12-15T07:30:27.739Z,43.90
2022-12-15T07:31:28.078Z,41.90
2022-12-15T07:32:28.351Z,44.30
2022-12-15T07:33:28.836Z,46.50
2022-12-15T07:34:28.963Z,43.40
2022-12-15T07:35:29.257Z,42.90
2022-12-15T07:36:29.522Z,45.10
2022-12-15T07:37:29.866Z,44.40
2022-12-15T07:38:30.222Z,43.20
2022-12-15T07:39:30.364Z,43.60
2022-12-15T07:40:30.931Z,43.80
2022-12-15T07:41:30.973Z,43.80
2022-12-15T07:42:31.362Z,45.50
2022-12-15T07:43:32.073Z,45.40
2022-12-15T07:44:31.795Z,45.10
2022-12-15T07:45:32.171Z,45.30
2022-12-15T07:46:32.406Z,47.40
2022-12-15T07:47:32.622Z,45.20
2022-12-15T07:48:32.995Z,47.50
2022-12-15T07:49:33.129Z,45.60
2022-12-15T07:50:33.459Z,48.40
2022-12-15T07:51:33.692Z,50.20
2022-12-15T07:52:33.974Z,52.40
2022-12-15T07:53:34.804Z,51.20
2022-12-15T07:54:34.660Z,53.20
2022-12-15T07:56:04.951Z,49.80
2022-12-15T07:56:39.282Z,55.10
2022-12-15T07:57:35.471Z,52.70
2022-12-15T07:58:35.785Z,53.40
2022-12-15T07:59:36.061Z,53.30
2022-12-15T08:00:36.374Z,54.80
2022-12-15T08:01:36.847Z,56.30
2022-12-15T08:02:37.178Z,57.90
2022-12-15T08:03:38.001Z,57.70
2022-12-15T08:04:37.513Z,54.30
2022-12-15T08:05:37.736Z,59.00
2022-12-15T08:06:38.030Z,57.00
2022-12-15T08:07:38.377Z,61.00
2022-12-15T08:08:38.647Z,62.50
2022-12-15T08:09:38.883Z,60.00
2022-12-15T08:10:39.212Z,57.40
2022-12-15T08:11:39.573Z,61.20
2022-12-15T08:12:39.805Z,58.70
2022-12-15T08:14:41.502Z,59.80
2022-12-15T08:15:40.601Z,63.50
2022-12-15T08:16:40.980Z,58.20
2022-12-15T08:17:41.147Z,57.90
2022-12-15T08:18:41.448Z,59.00
2022-12-15T08:19:41.769Z,59.10
2022-12-15T08:20:42.074Z,56.80
2022-12-15T08:21:42.375Z,56.10
2022-12-15T08:22:42.659Z,63.10
2022-12-15T08:23:42.981Z,58.80
2022-12-15T08:24:43.331Z,58.50
2022-12-15T08:25:43.563Z,56.30
2022-12-15T08:26:43.862Z,57.70
2022-12-15T08:27:44.116Z,57.10
2022-12-15T08:28:44.416Z,58.20
2022-12-15T08:29:52.535Z,52.60
2022-12-15T08:30:46.013Z,51.00
2022-12-15T08:31:45.395Z,55.00
2022-12-15T08:32:50.163Z,53.40
2022-12-15T08:33:46.818Z,53.10
2022-12-15T08:34:46.150Z,52.80
2022-12-15T08:35:56.830Z,51.20
2022-12-15T08:36:47.671Z,52.70
2022-12-15T08:37:46.956Z,53.40
2022-12-15T08:38:47.239Z,48.70
2022-12-15T08:39:47.554Z,51.90
2022-12-15T08:40:47.809Z,57.00
2022-12-15T08:41:48.126Z,58.20
2022-12-15T08:42:48.381Z,55.20
2022-12-15T08:43:49.517Z,55.90
2022-12-15T08:44:49.000Z,54.30
2022-12-15T08:45:50.222Z,55.30
2022-12-15T08:46:49.651Z,54.40
2022-12-15T08:47:49.891Z,60.00
2022-12-15T08:48:50.272Z,58.90
2022-12-15T08:49:50.523Z,58.00
2022-12-15T08:50:50.830Z,56.20
2022-12-15T08:51:51.088Z,59.20
2022-12-15T08:53:21.254Z,60.30
2022-12-15T08:53:52.675Z,62.70
2022-12-15T08:54:51.992Z,61.90
2022-12-15T08:55:52.337Z,66.50
2022-12-15T08:56:52.613Z,65.20
2022-12-15T08:57:52.941Z,71.30
2022-12-15T08:58:53.184Z,65.50
2022-12-15T08:59:53.492Z,68.50
2022-12-15T09:00:53.892Z,63.70
2022-12-15T09:01:55.661Z,62.30
2022-12-15T09:02:54.450Z,63.30
2022-12-15T09:03:54.731Z,64.80
2022-12-15T09:04:55.034Z,63.60
2022-12-15T09:05:55.242Z,66.40
2022-12-15T09:06:55.489Z,62.80
2022-12-15T09:07:55.781Z,63.50
2022-12-15T09:08:56.075Z,63.60
2022-12-15T09:09:56.355Z,59.20
2022-12-15T09:10:56.677Z,59.00
2022-12-15T09:11:56.991Z,59.80
2022-12-15T09:12:57.308Z,52.70
2022-12-15T09:13:57.623Z,53.40
2022-12-15T09:14:57.970Z,54.40
2022-12-15T09:16:13.497Z,55.80
2022-12-15T09:16:59.576Z,55.30
2022-12-15T09:17:58.838Z,55.60
2022-12-15T09:18:59.132Z,55.90
2022-12-15T09:19:59.453Z,57.90
2022-12-15T09:20:59.740Z,57.30
2022-12-15T09:22:00.170Z,51.90
2022-12-15T09:23:00.294Z,48.10
2022-12-15T09:24:00.906Z,52.90
2022-12-15T09:25:00.887Z,58.50
2022-12-15T09:26:01.151Z,53.70
2022-12-15T09:27:01.486Z,49.80
2022-12-15T09:28:01.761Z,48.30
2022-12-15T09:29:02.270Z,52.10
2022-12-15T09:30:02.384Z,53.70
2022-12-15T09:31:02.772Z,54.70
2022-12-15T09:32:02.916Z,52.80
2022-12-15T09:33:03.208Z,55.40
2022-12-15T09:34:03.519Z,56.60
2022-12-15T09:35:03.846Z,55.40
2022-12-15T09:36:04.175Z,55.50
2022-12-15T09:37:04.459Z,54.50
2022-12-15T09:38:04.700Z,55.10
2022-12-15T09:39:04.945Z,58.40
2022-12-15T09:40:05.290Z,58.30
2022-12-15T09:41:05.538Z,60.10
2022-12-15T09:42:05.802Z,54.70
2022-12-15T09:43:33.457Z,63.30
2022-12-15T09:44:07.454Z,53.20
2022-12-15T09:45:07.157Z,71.90
2022-12-15T09:46:07.077Z,73.20
2022-12-15T09:47:07.348Z,70.30
2022-12-15T09:48:07.670Z,65.10
2022-12-15T09:49:07.939Z,69.70
2022-12-15T09:50:08.180Z,72.60
2022-12-15T09:51:08.514Z,56.10
2022-12-15T09:52:11.278Z,50.00
2022-12-15T09:53:23.288Z,49.00
2022-12-15T09:54:10.382Z,46.70
2022-12-15T09:55:09.857Z,54.60
2022-12-15T09:56:10.024Z,47.30
2022-12-15T09:57:10.333Z,54.90
2022-12-15T09:58:11.287Z,51.70
2022-12-15T09:59:10.885Z,51.50
2022-12-15T10:00:11.226Z,55.40
2022-12-15T10:01:11.472Z,48.10
2022-12-15T10:02:11.821Z,49.20
2022-12-15T10:03:12.169Z,49.00
2022-12-15T10:04:12.377Z,47.00
2022-12-15T10:05:12.673Z,48.70
2022-12-15T10:07:14.277Z,52.20
2022-12-15T10:08:13.570Z,45.00
2022-12-15T10:09:13.835Z,45.10
2022-12-15T10:10:14.187Z,43.90
2022-12-15T10:11:14.458Z,48.40
2022-12-15T10:12:14.706Z,49.00
2022-12-15T10:13:15.080Z,68.50
2022-12-15T10:14:15.273Z,54.90
2022-12-15T10:15:15.704Z,51.90
2022-12-15T10:16:15.888Z,47.20
2022-12-15T10:17:16.646Z,48.40
2022-12-15T10:18:16.505Z,48.50
2022-12-15T10:19:16.803Z,58.50
2022-12-15T10:20:17.104Z,55.80
2022-12-15T10:21:17.415Z,71.90
2022-12-15T10:22:17.704Z,57.00
2022-12-15T10:23:18.553Z,56.90
2022-12-15T10:24:37.542Z,52.60
2022-12-15T10:25:25.365Z,47.00
2022-12-15T10:26:19.916Z,44.20
2022-12-15T10:27:19.248Z,48.10
2022-12-15T10:28:19.529Z,48.00
2022-12-15T10:29:19.850Z,52.60
2022-12-15T10:30:20.271Z,44.90
2022-12-15T10:31:20.450Z,45.90
2022-12-15T10:32:20.699Z,46.80
2022-12-15T10:33:21.001Z,60.00
2022-12-15T10:34:21.289Z,56.70
2022-12-15T10:35:22.029Z,89.40
2022-12-15T10:36:21.893Z,56.60
2022-12-15T10:37:22.153Z,52.20
2022-12-15T10:38:22.430Z,76.70
2022-12-15T10:39:22.751Z,76.60
2022-12-15T10:40:23.150Z,53.90
2022-12-15T10:41:23.365Z,50.80
2022-12-15T10:42:23.617Z,47.10
2022-12-15T10:43:23.955Z,44.10
2022-12-15T10:44:30.324Z,45.80
2022-12-15T10:45:25.523Z,46.60
2022-12-15T10:46:24.888Z,44.20
2022-12-15T10:47:25.161Z,46.10
2022-12-15T10:48:25.423Z,42.30
2022-12-15T10:49:25.727Z,45.90
2022-12-15T10:50:26.079Z,45.10
2022-12-15T10:51:26.288Z,51.80
2022-12-15T10:52:26.540Z,51.80
2022-12-15T10:53:26.829Z,50.80
2022-12-15T10:54:27.124Z,48.60
2022-12-15T10:55:27.453Z,53.40
2022-12-15T10:56:33.261Z,53.80
2022-12-15T10:57:29.077Z,51.50
2022-12-15T10:58:28.370Z,53.40
2022-12-15T10:59:28.641Z,58.00
2022-12-15T11:00:28.960Z,54.40
2022-12-15T11:01:29.905Z,49.90
2022-12-15T11:02:29.835Z,55.50
2022-12-15T11:03:30.771Z,55.90
2022-12-15T11:04:30.341Z,52.30
2022-12-15T11:05:30.512Z,50.30
2022-12-15T11:06:30.822Z,51.40
2022-12-15T11:07:31.182Z,82.80
2022-12-15T11:08:31.392Z,55.20
2022-12-15T11:09:31.712Z,53.70
2022-12-15T11:10:31.964Z,53.10
2022-12-15T11:11:32.258Z,54.80
2022-12-15T11:12:32.589Z,54.30
2022-12-15T11:13:35.007Z,53.00
2022-12-15T11:14:33.231Z,54.30
2022-12-15T11:15:33.526Z,58.10
2022-12-15T11:16:33.862Z,57.90
2022-12-15T11:17:34.154Z,54.20
2022-12-15T11:18:34.447Z,54.70
2022-12-15T11:19:34.684Z,57.00
2022-12-15T11:20:34.995Z,57.80
2022-12-15T11:21:35.293Z,63.20
2022-12-15T11:22:35.590Z,61.30
2022-12-15T11:23:36.033Z,63.40
2022-12-15T11:24:36.110Z,60.60
2022-12-15T11:25:36.435Z,71.00
2022-12-15T11:26:36.775Z,66.60
2022-12-15T11:27:37.006Z,81.50
2022-12-15T11:28:37.404Z,65.50
2022-12-15T11:29:37.567Z,72.30
2022-12-15T11:30:37.853Z,73.00
2022-12-15T11:31:38.148Z,72.60
2022-12-15T11:32:38.442Z,72.70
2022-12-15T11:33:38.756Z,73.60
2022-12-15T11:34:39.138Z,74.40
2022-12-15T11:35:39.383Z,75.00
2022-12-15T11:36:39.645Z,79.00
2022-12-15T11:37:39.994Z,70.00
2022-12-15T11:38:40.275Z,80.90
2022-12-15T11:39:40.546Z,81.50
2022-12-15T11:40:41.086Z,77.30
2022-12-15T11:41:41.168Z,80.90
2022-12-15T11:42:41.558Z,86.60
2022-12-15T11:43:41.719Z,81.20
2022-12-15T11:44:41.964Z,83.90
2022-12-15T11:45:42.295Z,74.00
2022-12-15T11:46:42.571Z,77.70
2022-12-15T11:47:42.845Z,80.10
2022-12-15T11:48:44.005Z,78.20
2022-12-15T11:49:43.404Z,75.20
2022-12-15T11:50:43.651Z,76.00
2022-12-15T11:51:44.029Z,77.30
2022-12-15T11:52:44.270Z,83.00
2022-12-15T11:53:44.538Z,76.40
2022-12-15T11:54:44.807Z,74.80
2022-12-15T11:55:45.064Z,78.20
2022-12-15T11:56:45.518Z,76.60
2022-12-15T11:57:45.627Z,80.20
2022-12-15T11:58:45.933Z,77.70
2022-12-15T11:59:46.172Z,84.20
2022-12-15T12:00:46.445Z,84.00
2022-12-15T12:02:48.172Z,80.30
2022-12-15T12:03:47.372Z,80.20
2022-12-15T12:04:47.625Z,79.50
2022-12-15T12:05:48.077Z,76.40
2022-12-15T12:06:48.181Z,79.40
2022-12-15T12:07:49.050Z,79.00
2022-12-15T12:08:51.328Z,77.00
2022-12-15T12:09:49.186Z,79.20
2022-12-15T12:10:49.391Z,77.40
2022-12-15T12:12:51.019Z,75.20
2022-12-15T12:13:50.406Z,76.80
2022-12-15T12:14:50.830Z,76.30
2022-12-15T12:15:50.768Z,79.10
2022-12-15T12:16:51.010Z,83.30
2022-12-15T12:17:51.394Z,87.90
2022-12-15T12:18:51.646Z,87.70
2022-12-15T12:19:51.941Z,88.60
2022-12-15T12:20:52.176Z,90.50
2022-12-15T12:21:53.893Z,101.30
2022-12-15T12:22:52.703Z,88.80
2022-12-15T12:23:52.993Z,83.80
2022-12-15T12:24:53.735Z,86.20
2022-12-15T12:25:55.805Z,86.10
2022-12-15T12:26:53.814Z,77.40
2022-12-15T12:27:54.141Z,77.80
2022-12-15T12:28:54.424Z,73.40
2022-12-15T12:29:54.730Z,77.70
2022-12-15T12:30:54.990Z,75.80
2022-12-15T12:31:59.072Z,77.50
2022-12-15T12:32:56.582Z,83.50
2022-12-15T12:33:55.940Z,81.10
2022-12-15T12:35:57.448Z,79.20
2022-12-15T12:36:56.693Z,79.60
2022-12-15T12:38:01.374Z,72.00
2022-12-15T12:38:58.212Z,73.50
2022-12-15T12:39:57.516Z,69.30
2022-12-15T12:40:57.738Z,69.60
2022-12-15T12:41:58.082Z,67.70
2022-12-15T12:42:58.375Z,64.40
2022-12-15T12:43:58.878Z,66.70
2022-12-15T12:44:58.900Z,73.90
2022-12-15T12:45:59.273Z,69.20
2022-12-15T12:46:59.566Z,68.50
2022-12-15T12:47:59.850Z,71.80
2022-12-15T12:49:00.080Z,76.20
2022-12-15T12:50:00.346Z,74.50
2022-12-15T12:51:00.626Z,73.40
2022-12-15T12:52:00.934Z,80.10
2022-12-15T12:53:01.206Z,78.90
2022-12-15T12:54:01.492Z,75.90
2022-12-15T12:55:01.823Z,76.20
2022-12-15T12:56:02.100Z,76.80
2022-12-15T12:57:02.370Z,74.40
2022-12-15T12:58:02.643Z,78.90
2022-12-15T12:59:02.976Z,73.00
2022-12-15T13:00:03.228Z,79.10
2022-12-15T13:01:03.672Z,75.30
2022-12-15T13:02:03.911Z,76.20